sensor_id;sensor_type;location;lat;lon;timestamp;temperature;humidity
9542;DHT22;4809;48.224;8.572;2023-07-31T00:00:25;13.70;99.90
9542;DHT22;4809;48.224;8.572;2023-07-31T00:02:52;13.80;99.90
9542;DHT22;4809;48.224;8.572;2023-07-31T00:05:17;13.80;99.90
9542;DHT22;4809;48.224;8.572;2023-07-31T00:07:43;13.80;99.90
9542;DHT22;4809;48.224;8.572;2023-07-31T00:10:09;13.70;99.90
9542;DHT22;4809;48.224;8.572;2023-07-31T00:12:35;13.80;99.90
9542;DHT22;4809;48.224;8.572;2023-07-31T00:15:01;13.80;99.90
9542;DHT22;4809;48.224;8.572;2023-07-31T00:17:27;13.70;99.90
9542;DHT22;4809;48.224;8.572;2023-07-31T00:19:53;13.70;99.90
9542;DHT22;4809;48.224;8.572;2023-07-31T00:22:19;13.70;99.90
9542;DHT22;4809;48.224;8.572;2023-07-31T00:24:44;13.70;99.90
9542;DHT22;4809;48.224;8.572;2023-07-31T00:27:10;13.70;99.90
9542;DHT22;4809;48.224;8.572;2023-07-31T00:29:36;13.70;99.90
9542;DHT22;4809;48.224;8.572;2023-07-31T00:32:01;13.60;99.90
9542;DHT22;4809;48.224;8.572;2023-07-31T00:34:27;13.60;99.90
9542;DHT22;4809;48.224;8.572;2023-07-31T00:36:52;13.60;99.90
9542;DHT22;4809;48.224;8.572;2023-07-31T00:39:18;13.60;99.90
9542;DHT22;4809;48.224;8.572;2023-07-31T00:41:44;13.50;99.90
9542;DHT22;4809;48.224;8.572;2023-07-31T00:44:09;13.50;99.90
9542;DHT22;4809;48.224;8.572;2023-07-31T00:46:35;13.50;99.90
9542;DHT22;4809;48.224;8.572;2023-07-31T00:49:01;13.40;99.90
9542;DHT22;4809;48.224;8.572;2023-07-31T00:51:26;13.40;99.90
9542;DHT22;4809;48.224;8.572;2023-07-31T00:53:53;13.40;99.90
9542;DHT22;4809;48.224;8.572;2023-07-31T00:56:19;13.30;99.90
9542;DHT22;4809;48.224;8.572;2023-07-31T00:58:45;13.40;99.90
9542;DHT22;4809;48.224;8.572;2023-07-31T01:01:11;13.40;99.90
9542;DHT22;4809;48.224;8.572;2023-07-31T01:03:36;13.40;99.90
9542;DHT22;4809;48.224;8.572;2023-07-31T01:09:06;13.30;99.90
9542;DHT22;4809;48.224;8.572;2023-07-31T01:11:48;13.30;99.90
9542;DHT22;4809;48.224;8.572;2023-07-31T01:14:15;13.30;99.90
9542;DHT22;4809;48.224;8.572;2023-07-31T01:16:41;13.30;99.90
9542;DHT22;4809;48.224;8.572;2023-07-31T01:19:09;13.30;99.90
9542;DHT22;4809;48.224;8.572;2023-07-31T01:24:23;13.40;99.90
9542;DHT22;4809;48.224;8.572;2023-07-31T01:26:57;13.40;99.90
9542;DHT22;4809;48.224;8.572;2023-07-31T01:29:49;13.30;99.90
9542;DHT22;4809;48.224;8.572;2023-07-31T01:32:22;13.40;99.90
9542;DHT22;4809;48.224;8.572;2023-07-31T01:34:48;13.40;99.90
9542;DHT22;4809;48.224;8.572;2023-07-31T01:37:14;13.40;99.90
9542;DHT22;4809;48.224;8.572;2023-07-31T01:39:40;13.40;99.90
9542;DHT22;4809;48.224;8.572;2023-07-31T01:42:06;13.50;99.90
9542;DHT22;4809;48.224;8.572;2023-07-31T01:44:32;13.50;99.90
9542;DHT22;4809;48.224;8.572;2023-07-31T01:46:58;13.40;99.90
9542;DHT22;4809;48.224;8.572;2023-07-31T01:49:25;13.40;99.90
9542;DHT22;4809;48.224;8.572;2023-07-31T01:51:51;13.50;99.90
9542;DHT22;4809;48.224;8.572;2023-07-31T01:54:16;13.40;99.90
9542;DHT22;4809;48.224;8.572;2023-07-31T01:56:42;13.40;99.90
9542;DHT22;4809;48.224;8.572;2023-07-31T01:59:08;13.40;99.90
9542;DHT22;4809;48.224;8.572;2023-07-31T02:01:33;13.40;99.90
9542;DHT22;4809;48.224;8.572;2023-07-31T02:03:59;13.40;99.90
9542;DHT22;4809;48.224;8.572;2023-07-31T02:06:24;13.40;99.90
9542;DHT22;4809;48.224;8.572;2023-07-31T02:08:50;13.40;99.90
9542;DHT22;4809;48.224;8.572;2023-07-31T02:11:16;13.40;99.90
9542;DHT22;4809;48.224;8.572;2023-07-31T02:13:41;13.30;99.90
9542;DHT22;4809;48.224;8.572;2023-07-31T02:16:07;13.40;99.90
9542;DHT22;4809;48.224;8.572;2023-07-31T02:18:33;13.30;99.90
9542;DHT22;4809;48.224;8.572;2023-07-31T02:20:58;13.30;99.90
9542;DHT22;4809;48.224;8.572;2023-07-31T02:23:24;13.30;99.90
9542;DHT22;4809;48.224;8.572;2023-07-31T02:25:49;13.30;99.90
9542;DHT22;4809;48.224;8.572;2023-07-31T02:28:15;13.20;99.90
9542;DHT22;4809;48.224;8.572;2023-07-31T02:30:44;13.30;99.90
9542;DHT22;4809;48.224;8.572;2023-07-31T02:33:10;13.20;99.90
9542;DHT22;4809;48.224;8.572;2023-07-31T02:35:36;13.10;99.90
9542;DHT22;4809;48.224;8.572;2023-07-31T02:38:01;13.10;99.90
9542;DHT22;4809;48.224;8.572;2023-07-31T02:40:27;13.00;99.90
9542;DHT22;4809;48.224;8.572;2023-07-31T02:42:53;13.10;99.90
9542;DHT22;4809;48.224;8.572;2023-07-31T02:45:18;13.10;99.90
9542;DHT22;4809;48.224;8.572;2023-07-31T02:47:44;13.00;99.90
9542;DHT22;4809;48.224;8.572;2023-07-31T02:50:10;12.90;99.90
9542;DHT22;4809;48.224;8.572;2023-07-31T02:52:35;13.00;99.90
9542;DHT22;4809;48.224;8.572;2023-07-31T02:55:01;13.00;99.90
9542;DHT22;4809;48.224;8.572;2023-07-31T02:57:27;13.00;99.90
9542;DHT22;4809;48.224;8.572;2023-07-31T02:59:52;13.00;99.90
9542;DHT22;4809;48.224;8.572;2023-07-31T03:02:18;12.90;99.90
9542;DHT22;4809;48.224;8.572;2023-07-31T03:04:43;12.90;99.90
9542;DHT22;4809;48.224;8.572;2023-07-31T03:07:09;12.80;99.90
9542;DHT22;4809;48.224;8.572;2023-07-31T03:09:35;12.70;99.90
9542;DHT22;4809;48.224;8.572;2023-07-31T03:12:00;12.70;99.90
9542;DHT22;4809;48.224;8.572;2023-07-31T03:14:26;12.80;99.90
9542;DHT22;4809;48.224;8.572;2023-07-31T03:16:52;12.80;99.90
9542;DHT22;4809;48.224;8.572;2023-07-31T03:19:18;12.80;99.90
9542;DHT22;4809;48.224;8.572;2023-07-31T03:21:43;12.90;99.90
9542;DHT22;4809;48.224;8.572;2023-07-31T03:24:09;12.80;99.90
9542;DHT22;4809;48.224;8.572;2023-07-31T03:26:34;12.90;99.90
9542;DHT22;4809;48.224;8.572;2023-07-31T03:29:01;12.90;99.90
9542;DHT22;4809;48.224;8.572;2023-07-31T03:31:27;12.90;99.90
9542;DHT22;4809;48.224;8.572;2023-07-31T03:33:53;12.90;99.90
9542;DHT22;4809;48.224;8.572;2023-07-31T03:36:18;12.90;99.90
9542;DHT22;4809;48.224;8.572;2023-07-31T03:38:44;13.00;99.90
9542;DHT22;4809;48.224;8.572;2023-07-31T03:41:10;13.00;99.90
9542;DHT22;4809;48.224;8.572;2023-07-31T03:43:36;13.00;99.90
9542;DHT22;4809;48.224;8.572;2023-07-31T03:46:01;13.00;99.90
9542;DHT22;4809;48.224;8.572;2023-07-31T03:48:28;13.00;99.90
9542;DHT22;4809;48.224;8.572;2023-07-31T03:50:53;13.00;99.90
9542;DHT22;4809;48.224;8.572;2023-07-31T03:53:19;13.00;99.90
9542;DHT22;4809;48.224;8.572;2023-07-31T03:55:45;13.00;99.90
9542;DHT22;4809;48.224;8.572;2023-07-31T03:58:10;13.00;99.90
9542;DHT22;4809;48.224;8.572;2023-07-31T04:00:36;13.00;99.90
9542;DHT22;4809;48.224;8.572;2023-07-31T04:03:02;13.00;99.90
9542;DHT22;4809;48.224;8.572;2023-07-31T04:05:30;13.00;99.90
9542;DHT22;4809;48.224;8.572;2023-07-31T04:07:55;13.10;99.90
9542;DHT22;4809;48.224;8.572;2023-07-31T04:10:21;13.10;99.90
9542;DHT22;4809;48.224;8.572;2023-07-31T04:12:46;13.10;99.90
9542;DHT22;4809;48.224;8.572;2023-07-31T04:15:12;13.10;99.90
9542;DHT22;4809;48.224;8.572;2023-07-31T04:17:38;13.10;99.90
9542;DHT22;4809;48.224;8.572;2023-07-31T04:20:04;13.10;99.90
9542;DHT22;4809;48.224;8.572;2023-07-31T04:22:29;13.10;99.90
9542;DHT22;4809;48.224;8.572;2023-07-31T04:24:55;13.10;99.90
9542;DHT22;4809;48.224;8.572;2023-07-31T04:27:21;13.00;99.90
9542;DHT22;4809;48.224;8.572;2023-07-31T04:29:46;13.10;99.90
9542;DHT22;4809;48.224;8.572;2023-07-31T04:32:13;13.10;99.90
9542;DHT22;4809;48.224;8.572;2023-07-31T04:34:38;13.10;99.90
9542;DHT22;4809;48.224;8.572;2023-07-31T04:37:04;13.10;99.90
9542;DHT22;4809;48.224;8.572;2023-07-31T04:39:30;13.10;99.90
9542;DHT22;4809;48.224;8.572;2023-07-31T04:41:55;13.10;99.90
9542;DHT22;4809;48.224;8.572;2023-07-31T04:44:21;13.20;99.90
9542;DHT22;4809;48.224;8.572;2023-07-31T04:46:47;13.10;99.90
9542;DHT22;4809;48.224;8.572;2023-07-31T04:49:12;13.10;99.90
9542;DHT22;4809;48.224;8.572;2023-07-31T04:51:38;13.20;99.90
9542;DHT22;4809;48.224;8.572;2023-07-31T04:54:03;13.30;99.90
9542;DHT22;4809;48.224;8.572;2023-07-31T04:56:29;13.40;99.90
9542;DHT22;4809;48.224;8.572;2023-07-31T04:58:55;13.40;99.90
9542;DHT22;4809;48.224;8.572;2023-07-31T05:01:20;13.50;99.90
9542;DHT22;4809;48.224;8.572;2023-07-31T05:03:46;13.50;99.90
9542;DHT22;4809;48.224;8.572;2023-07-31T05:06:11;13.60;99.90
9542;DHT22;4809;48.224;8.572;2023-07-31T05:08:38;13.70;99.90
9542;DHT22;4809;48.224;8.572;2023-07-31T05:11:04;13.70;99.90
9542;DHT22;4809;48.224;8.572;2023-07-31T05:13:30;13.80;99.90
9542;DHT22;4809;48.224;8.572;2023-07-31T05:15:56;13.80;99.90
9542;DHT22;4809;48.224;8.572;2023-07-31T05:18:21;13.90;99.90
9542;DHT22;4809;48.224;8.572;2023-07-31T05:20:47;13.90;99.90
9542;DHT22;4809;48.224;8.572;2023-07-31T05:23:12;13.90;99.90
9542;DHT22;4809;48.224;8.572;2023-07-31T05:25:38;14.00;99.90
9542;DHT22;4809;48.224;8.572;2023-07-31T05:28:04;14.00;99.90
9542;DHT22;4809;48.224;8.572;2023-07-31T05:30:33;14.00;99.90
9542;DHT22;4809;48.224;8.572;2023-07-31T05:32:58;14.00;99.90
9542;DHT22;4809;48.224;8.572;2023-07-31T05:35:24;14.00;99.90
9542;DHT22;4809;48.224;8.572;2023-07-31T05:37:50;14.00;99.90
9542;DHT22;4809;48.224;8.572;2023-07-31T05:40:15;13.90;99.90
9542;DHT22;4809;48.224;8.572;2023-07-31T05:42:41;14.00;99.90
9542;DHT22;4809;48.224;8.572;2023-07-31T05:45:07;14.00;99.90
9542;DHT22;4809;48.224;8.572;2023-07-31T05:47:33;14.00;99.90
9542;DHT22;4809;48.224;8.572;2023-07-31T05:49:59;14.10;99.90
9542;DHT22;4809;48.224;8.572;2023-07-31T05:52:24;14.10;99.90
9542;DHT22;4809;48.224;8.572;2023-07-31T05:54:50;14.20;99.90
9542;DHT22;4809;48.224;8.572;2023-07-31T05:57:16;14.20;99.90
9542;DHT22;4809;48.224;8.572;2023-07-31T05:59:41;14.20;99.90
9542;DHT22;4809;48.224;8.572;2023-07-31T06:02:07;14.30;99.90
9542;DHT22;4809;48.224;8.572;2023-07-31T06:04:33;14.40;99.90
9542;DHT22;4809;48.224;8.572;2023-07-31T06:06:58;14.40;99.90
9542;DHT22;4809;48.224;8.572;2023-07-31T06:09:24;14.50;99.90
9542;DHT22;4809;48.224;8.572;2023-07-31T06:11:51;14.50;99.90
9542;DHT22;4809;48.224;8.572;2023-07-31T06:14:17;14.60;99.90
9542;DHT22;4809;48.224;8.572;2023-07-31T06:16:42;14.60;99.90
9542;DHT22;4809;48.224;8.572;2023-07-31T06:19:09;14.70;99.90
9542;DHT22;4809;48.224;8.572;2023-07-31T06:21:35;14.80;99.90
9542;DHT22;4809;48.224;8.572;2023-07-31T06:24:03;14.90;99.90
9542;DHT22;4809;48.224;8.572;2023-07-31T06:26:28;15.00;99.90
9542;DHT22;4809;48.224;8.572;2023-07-31T06:28:54;15.10;99.90
9542;DHT22;4809;48.224;8.572;2023-07-31T06:31:20;15.20;99.90
9542;DHT22;4809;48.224;8.572;2023-07-31T06:33:51;15.20;99.90
9542;DHT22;4809;48.224;8.572;2023-07-31T06:36:17;15.20;99.90
9542;DHT22;4809;48.224;8.572;2023-07-31T06:38:43;15.20;99.90
9542;DHT22;4809;48.224;8.572;2023-07-31T06:41:09;15.20;99.90
9542;DHT22;4809;48.224;8.572;2023-07-31T06:43:36;15.30;99.90
9542;DHT22;4809;48.224;8.572;2023-07-31T06:46:06;15.40;99.90
9542;DHT22;4809;48.224;8.572;2023-07-31T06:48:32;15.60;99.90
9542;DHT22;4809;48.224;8.572;2023-07-31T06:50:58;15.90;99.90
9542;DHT22;4809;48.224;8.572;2023-07-31T06:53:24;16.30;99.90
9542;DHT22;4809;48.224;8.572;2023-07-31T06:55:49;16.50;99.90
9542;DHT22;4809;48.224;8.572;2023-07-31T06:58:17;16.60;99.90
9542;DHT22;4809;48.224;8.572;2023-07-31T07:00:43;16.50;99.90
9542;DHT22;4809;48.224;8.572;2023-07-31T07:03:09;16.50;99.90
9542;DHT22;4809;48.224;8.572;2023-07-31T07:05:34;16.50;99.90
9542;DHT22;4809;48.224;8.572;2023-07-31T07:08:00;16.50;99.90
9542;DHT22;4809;48.224;8.572;2023-07-31T07:10:26;16.40;99.90
9542;DHT22;4809;48.224;8.572;2023-07-31T07:12:52;16.40;99.90
9542;DHT22;4809;48.224;8.572;2023-07-31T07:15:17;16.50;99.90
9542;DHT22;4809;48.224;8.572;2023-07-31T07:17:43;16.60;99.90
9542;DHT22;4809;48.224;8.572;2023-07-31T07:20:09;16.80;99.90
9542;DHT22;4809;48.224;8.572;2023-07-31T07:22:35;16.80;99.90
9542;DHT22;4809;48.224;8.572;2023-07-31T07:25:01;16.90;99.90
9542;DHT22;4809;48.224;8.572;2023-07-31T07:27:27;16.90;99.90
9542;DHT22;4809;48.224;8.572;2023-07-31T07:29:53;17.10;99.90
9542;DHT22;4809;48.224;8.572;2023-07-31T07:32:18;17.20;99.90
9542;DHT22;4809;48.224;8.572;2023-07-31T07:34:44;17.30;99.90
9542;DHT22;4809;48.224;8.572;2023-07-31T07:37:10;17.30;99.90
9542;DHT22;4809;48.224;8.572;2023-07-31T07:39:36;17.30;99.90
9542;DHT22;4809;48.224;8.572;2023-07-31T07:42:05;17.40;99.90
9542;DHT22;4809;48.224;8.572;2023-07-31T07:44:31;17.40;99.90
9542;DHT22;4809;48.224;8.572;2023-07-31T07:46:58;17.50;99.90
9542;DHT22;4809;48.224;8.572;2023-07-31T07:49:24;17.60;99.90
9542;DHT22;4809;48.224;8.572;2023-07-31T07:51:50;17.70;99.90
9542;DHT22;4809;48.224;8.572;2023-07-31T07:54:16;17.90;99.90
9542;DHT22;4809;48.224;8.572;2023-07-31T07:56:46;17.80;99.90
9542;DHT22;4809;48.224;8.572;2023-07-31T07:59:15;17.90;99.90
9542;DHT22;4809;48.224;8.572;2023-07-31T08:01:40;18.20;99.90
9542;DHT22;4809;48.224;8.572;2023-07-31T08:04:06;18.50;99.90
9542;DHT22;4809;48.224;8.572;2023-07-31T08:06:32;18.50;99.90
9542;DHT22;4809;48.224;8.572;2023-07-31T08:08:59;18.60;99.90
9542;DHT22;4809;48.224;8.572;2023-07-31T08:11:24;18.60;99.90
9542;DHT22;4809;48.224;8.572;2023-07-31T08:13:50;18.70;99.90
9542;DHT22;4809;48.224;8.572;2023-07-31T08:16:16;18.60;99.90
9542;DHT22;4809;48.224;8.572;2023-07-31T08:18:41;18.60;99.90
9542;DHT22;4809;48.224;8.572;2023-07-31T08:21:10;18.60;99.90
9542;DHT22;4809;48.224;8.572;2023-07-31T08:23:35;18.50;99.90
9542;DHT22;4809;48.224;8.572;2023-07-31T08:26:01;18.40;99.90
9542;DHT22;4809;48.224;8.572;2023-07-31T08:28:26;18.60;99.90
9542;DHT22;4809;48.224;8.572;2023-07-31T08:30:52;18.80;99.90
9542;DHT22;4809;48.224;8.572;2023-07-31T08:33:21;19.10;99.90
9542;DHT22;4809;48.224;8.572;2023-07-31T08:35:46;19.70;99.90
9542;DHT22;4809;48.224;8.572;2023-07-31T08:38:12;19.80;99.90
9542;DHT22;4809;48.224;8.572;2023-07-31T08:40:37;19.60;99.90
9542;DHT22;4809;48.224;8.572;2023-07-31T08:43:04;19.70;99.90
9542;DHT22;4809;48.224;8.572;2023-07-31T08:45:30;20.00;99.90
9542;DHT22;4809;48.224;8.572;2023-07-31T08:47:56;20.00;99.90
9542;DHT22;4809;48.224;8.572;2023-07-31T08:50:25;20.10;99.90
9542;DHT22;4809;48.224;8.572;2023-07-31T08:52:51;20.30;99.90
9542;DHT22;4809;48.224;8.572;2023-07-31T08:55:18;20.40;99.90
9542;DHT22;4809;48.224;8.572;2023-07-31T08:57:51;20.60;99.90
9542;DHT22;4809;48.224;8.572;2023-07-31T09:00:18;20.90;99.90
9542;DHT22;4809;48.224;8.572;2023-07-31T09:03:03;21.10;99.90
9542;DHT22;4809;48.224;8.572;2023-07-31T09:05:32;21.30;99.90
9542;DHT22;4809;48.224;8.572;2023-07-31T09:08:00;21.40;99.90
9542;DHT22;4809;48.224;8.572;2023-07-31T09:10:26;21.60;99.90
9542;DHT22;4809;48.224;8.572;2023-07-31T09:12:52;21.80;99.90
9542;DHT22;4809;48.224;8.572;2023-07-31T09:15:18;22.00;99.90
9542;DHT22;4809;48.224;8.572;2023-07-31T09:17:44;21.70;99.90
9542;DHT22;4809;48.224;8.572;2023-07-31T09:20:17;21.40;99.90
9542;DHT22;4809;48.224;8.572;2023-07-31T09:22:44;21.20;99.90
9542;DHT22;4809;48.224;8.572;2023-07-31T09:30:17;21.80;99.90
9542;DHT22;4809;48.224;8.572;2023-07-31T09:32:44;21.80;99.90
9542;DHT22;4809;48.224;8.572;2023-07-31T09:35:34;22.00;99.90
9542;DHT22;4809;48.224;8.572;2023-07-31T09:38:09;22.10;99.60
9542;DHT22;4809;48.224;8.572;2023-07-31T09:40:37;22.30;99.90
9542;DHT22;4809;48.224;8.572;2023-07-31T09:43:05;22.60;99.80
9542;DHT22;4809;48.224;8.572;2023-07-31T09:45:34;22.60;99.00
9542;DHT22;4809;48.224;8.572;2023-07-31T09:48:01;22.40;99.00
9542;DHT22;4809;48.224;8.572;2023-07-31T09:50:28;22.00;98.70
9542;DHT22;4809;48.224;8.572;2023-07-31T09:52:54;22.00;99.00
9542;DHT22;4809;48.224;8.572;2023-07-31T09:55:20;22.10;99.70
9542;DHT22;4809;48.224;8.572;2023-07-31T09:57:48;22.70;99.50
9542;DHT22;4809;48.224;8.572;2023-07-31T10:00:18;23.10;97.60
9542;DHT22;4809;48.224;8.572;2023-07-31T10:02:47;23.40;96.70
9542;DHT22;4809;48.224;8.572;2023-07-31T10:05:17;23.70;96.10
9542;DHT22;4809;48.224;8.572;2023-07-31T10:07:48;23.40;95.00
9542;DHT22;4809;48.224;8.572;2023-07-31T10:10:16;23.00;96.30
9542;DHT22;4809;48.224;8.572;2023-07-31T10:12:42;22.80;96.10
9542;DHT22;4809;48.224;8.572;2023-07-31T10:15:09;23.10;95.40
9542;DHT22;4809;48.224;8.572;2023-07-31T10:17:36;23.20;94.40
9542;DHT22;4809;48.224;8.572;2023-07-31T10:20:03;23.50;95.10
9542;DHT22;4809;48.224;8.572;2023-07-31T10:22:30;23.50;92.80
9542;DHT22;4809;48.224;8.572;2023-07-31T10:24:59;23.60;93.70
9542;DHT22;4809;48.224;8.572;2023-07-31T10:27:25;23.50;92.80
9542;DHT22;4809;48.224;8.572;2023-07-31T10:29:52;23.50;93.70
9542;DHT22;4809;48.224;8.572;2023-07-31T10:32:20;23.90;93.20
9542;DHT22;4809;48.224;8.572;2023-07-31T10:34:46;24.20;93.70
9542;DHT22;4809;48.224;8.572;2023-07-31T10:42:31;24.50;90.80
9542;DHT22;4809;48.224;8.572;2023-07-31T10:44:59;24.50;90.50
9542;DHT22;4809;48.224;8.572;2023-07-31T10:47:25;24.50;90.10
9542;DHT22;4809;48.224;8.572;2023-07-31T10:49:50;24.40;91.40
9542;DHT22;4809;48.224;8.572;2023-07-31T10:52:21;24.40;91.00
9542;DHT22;4809;48.224;8.572;2023-07-31T10:57:44;24.90;89.50
9542;DHT22;4809;48.224;8.572;2023-07-31T11:00:30;24.90;85.90
9542;DHT22;4809;48.224;8.572;2023-07-31T11:05:44;25.20;87.70
9542;DHT22;4809;48.224;8.572;2023-07-31T11:08:20;25.30;82.80
9542;DHT22;4809;48.224;8.572;2023-07-31T11:10:47;24.90;84.10
9542;DHT22;4809;48.224;8.572;2023-07-31T11:13:14;24.80;82.50
9542;DHT22;4809;48.224;8.572;2023-07-31T11:15:39;24.90;83.20
9542;DHT22;4809;48.224;8.572;2023-07-31T11:18:05;24.70;82.70
9542;DHT22;4809;48.224;8.572;2023-07-31T11:20:34;24.60;82.60
9542;DHT22;4809;48.224;8.572;2023-07-31T11:23:08;24.50;81.90
9542;DHT22;4809;48.224;8.572;2023-07-31T11:25:35;24.10;83.20
9542;DHT22;4809;48.224;8.572;2023-07-31T11:28:05;24.00;81.50
9542;DHT22;4809;48.224;8.572;2023-07-31T11:30:31;24.20;83.20
9542;DHT22;4809;48.224;8.572;2023-07-31T11:32:57;24.50;82.70
9542;DHT22;4809;48.224;8.572;2023-07-31T11:35:23;24.50;82.10
9542;DHT22;4809;48.224;8.572;2023-07-31T11:37:48;24.50;83.40
9542;DHT22;4809;48.224;8.572;2023-07-31T11:40:15;24.70;83.50
9542;DHT22;4809;48.224;8.572;2023-07-31T11:42:41;25.30;82.50
9542;DHT22;4809;48.224;8.572;2023-07-31T11:45:08;25.60;79.70
9542;DHT22;4809;48.224;8.572;2023-07-31T11:47:36;25.40;78.80
9542;DHT22;4809;48.224;8.572;2023-07-31T11:50:06;25.40;80.00
9542;DHT22;4809;48.224;8.572;2023-07-31T11:52:40;25.30;76.50
9542;DHT22;4809;48.224;8.572;2023-07-31T11:55:08;25.30;77.10
9542;DHT22;4809;48.224;8.572;2023-07-31T11:57:40;25.30;77.00
9542;DHT22;4809;48.224;8.572;2023-07-31T12:00:08;25.40;77.70
9542;DHT22;4809;48.224;8.572;2023-07-31T12:02:35;25.40;76.80
9542;DHT22;4809;48.224;8.572;2023-07-31T12:05:01;25.10;75.30
9542;DHT22;4809;48.224;8.572;2023-07-31T12:07:27;25.10;76.30
9542;DHT22;4809;48.224;8.572;2023-07-31T12:09:54;25.10;78.70
9542;DHT22;4809;48.224;8.572;2023-07-31T12:12:21;25.30;78.80
9542;DHT22;4809;48.224;8.572;2023-07-31T12:14:47;25.40;81.60
9542;DHT22;4809;48.224;8.572;2023-07-31T12:17:14;25.80;84.40
9542;DHT22;4809;48.224;8.572;2023-07-31T12:19:39;26.20;80.10
9542;DHT22;4809;48.224;8.572;2023-07-31T12:22:15;26.90;78.20
9542;DHT22;4809;48.224;8.572;2023-07-31T12:24:43;27.30;75.20
9542;DHT22;4809;48.224;8.572;2023-07-31T12:27:14;27.30;75.30
9542;DHT22;4809;48.224;8.572;2023-07-31T12:29:42;27.50;73.10
9542;DHT22;4809;48.224;8.572;2023-07-31T12:32:23;27.70;73.70
9542;DHT22;4809;48.224;8.572;2023-07-31T12:34:50;27.30;69.20
9542;DHT22;4809;48.224;8.572;2023-07-31T12:37:17;26.90;71.50
9542;DHT22;4809;48.224;8.572;2023-07-31T12:39:42;26.70;72.90
9542;DHT22;4809;48.224;8.572;2023-07-31T12:42:08;26.30;74.50
9542;DHT22;4809;48.224;8.572;2023-07-31T12:44:34;26.00;74.60
9542;DHT22;4809;48.224;8.572;2023-07-31T12:46:59;25.60;72.90
9542;DHT22;4809;48.224;8.572;2023-07-31T12:49:25;25.40;75.50
9542;DHT22;4809;48.224;8.572;2023-07-31T12:51:50;25.30;73.10
9542;DHT22;4809;48.224;8.572;2023-07-31T12:54:16;25.10;73.20
9542;DHT22;4809;48.224;8.572;2023-07-31T12:56:42;25.10;74.60
9542;DHT22;4809;48.224;8.572;2023-07-31T12:59:07;25.30;77.70
9542;DHT22;4809;48.224;8.572;2023-07-31T13:01:33;25.50;75.00
9542;DHT22;4809;48.224;8.572;2023-07-31T13:03:58;25.70;73.80
9542;DHT22;4809;48.224;8.572;2023-07-31T13:06:25;25.80;73.90
9542;DHT22;4809;48.224;8.572;2023-07-31T13:08:51;26.10;73.60
9542;DHT22;4809;48.224;8.572;2023-07-31T13:11:17;26.20;73.10
9542;DHT22;4809;48.224;8.572;2023-07-31T13:13:42;26.40;72.80
9542;DHT22;4809;48.224;8.572;2023-07-31T13:16:08;26.60;74.40
9542;DHT22;4809;48.224;8.572;2023-07-31T13:18:34;26.80;75.30
9542;DHT22;4809;48.224;8.572;2023-07-31T13:20:59;27.00;76.70
9542;DHT22;4809;48.224;8.572;2023-07-31T13:23:25;27.30;75.40
9542;DHT22;4809;48.224;8.572;2023-07-31T13:25:50;27.80;74.00
9542;DHT22;4809;48.224;8.572;2023-07-31T13:28:16;28.10;75.40
9542;DHT22;4809;48.224;8.572;2023-07-31T13:30:42;28.10;71.40
9542;DHT22;4809;48.224;8.572;2023-07-31T13:33:07;28.00;71.30
9542;DHT22;4809;48.224;8.572;2023-07-31T13:35:33;28.10;70.50
9542;DHT22;4809;48.224;8.572;2023-07-31T13:37:59;28.10;69.70
9542;DHT22;4809;48.224;8.572;2023-07-31T13:40:24;28.30;69.00
9542;DHT22;4809;48.224;8.572;2023-07-31T13:42:50;28.40;69.20
9542;DHT22;4809;48.224;8.572;2023-07-31T13:45:15;28.60;68.10
9542;DHT22;4809;48.224;8.572;2023-07-31T13:47:41;28.50;68.60
9542;DHT22;4809;48.224;8.572;2023-07-31T13:50:07;28.20;68.00
9542;DHT22;4809;48.224;8.572;2023-07-31T13:52:33;28.10;67.70
9542;DHT22;4809;48.224;8.572;2023-07-31T13:54:58;28.50;66.40
9542;DHT22;4809;48.224;8.572;2023-07-31T13:57:24;28.80;65.40
9542;DHT22;4809;48.224;8.572;2023-07-31T13:59:50;29.00;65.40
9542;DHT22;4809;48.224;8.572;2023-07-31T14:02:15;29.20;63.50
9542;DHT22;4809;48.224;8.572;2023-07-31T14:04:41;29.20;61.70
9542;DHT22;4809;48.224;8.572;2023-07-31T14:07:07;29.00;59.90
9542;DHT22;4809;48.224;8.572;2023-07-31T14:09:32;28.30;60.90
9542;DHT22;4809;48.224;8.572;2023-07-31T14:11:58;28.10;62.50
9542;DHT22;4809;48.224;8.572;2023-07-31T14:14:24;28.00;62.00
9542;DHT22;4809;48.224;8.572;2023-07-31T14:16:49;27.80;61.00
9542;DHT22;4809;48.224;8.572;2023-07-31T14:19:15;27.70;62.50
9542;DHT22;4809;48.224;8.572;2023-07-31T14:21:41;27.50;64.70
9542;DHT22;4809;48.224;8.572;2023-07-31T14:24:06;27.20;64.50
9542;DHT22;4809;48.224;8.572;2023-07-31T14:26:32;27.00;66.20
9542;DHT22;4809;48.224;8.572;2023-07-31T14:28:57;26.60;66.70
9542;DHT22;4809;48.224;8.572;2023-07-31T14:31:23;26.10;67.40
9542;DHT22;4809;48.224;8.572;2023-07-31T14:33:49;25.70;68.60
9542;DHT22;4809;48.224;8.572;2023-07-31T14:36:14;25.40;70.00
9542;DHT22;4809;48.224;8.572;2023-07-31T14:38:40;25.10;71.00
9542;DHT22;4809;48.224;8.572;2023-07-31T14:41:05;25.10;71.80
9542;DHT22;4809;48.224;8.572;2023-07-31T14:43:31;25.10;71.40
9542;DHT22;4809;48.224;8.572;2023-07-31T14:45:57;25.10;71.70
9542;DHT22;4809;48.224;8.572;2023-07-31T14:48:25;25.10;72.70
9542;DHT22;4809;48.224;8.572;2023-07-31T14:50:51;25.00;73.40
9542;DHT22;4809;48.224;8.572;2023-07-31T14:53:17;25.10;73.40
9542;DHT22;4809;48.224;8.572;2023-07-31T14:55:43;25.00;72.60
9542;DHT22;4809;48.224;8.572;2023-07-31T14:58:08;24.90;73.10
9542;DHT22;4809;48.224;8.572;2023-07-31T15:00:36;24.90;74.20
9542;DHT22;4809;48.224;8.572;2023-07-31T15:03:02;24.90;74.60
9542;DHT22;4809;48.224;8.572;2023-07-31T15:05:28;25.00;74.40
9542;DHT22;4809;48.224;8.572;2023-07-31T15:07:53;25.00;74.40
9542;DHT22;4809;48.224;8.572;2023-07-31T15:10:19;25.10;74.30
9542;DHT22;4809;48.224;8.572;2023-07-31T15:12:45;25.00;75.10
9542;DHT22;4809;48.224;8.572;2023-07-31T15:15:10;25.00;74.60
9542;DHT22;4809;48.224;8.572;2023-07-31T15:17:36;24.90;75.30
9542;DHT22;4809;48.224;8.572;2023-07-31T15:20:02;24.90;75.40
9542;DHT22;4809;48.224;8.572;2023-07-31T15:22:27;24.80;74.70
9542;DHT22;4809;48.224;8.572;2023-07-31T15:24:53;24.80;74.40
9542;DHT22;4809;48.224;8.572;2023-07-31T15:27:19;24.90;75.30
9542;DHT22;4809;48.224;8.572;2023-07-31T15:29:45;24.90;76.10
9542;DHT22;4809;48.224;8.572;2023-07-31T15:32:10;24.90;76.30
9542;DHT22;4809;48.224;8.572;2023-07-31T15:34:36;25.00;76.20
9542;DHT22;4809;48.224;8.572;2023-07-31T15:37:01;25.10;74.40
9542;DHT22;4809;48.224;8.572;2023-07-31T15:39:27;25.10;74.50
9542;DHT22;4809;48.224;8.572;2023-07-31T15:41:53;25.20;74.70
9542;DHT22;4809;48.224;8.572;2023-07-31T15:44:18;25.20;75.00
9542;DHT22;4809;48.224;8.572;2023-07-31T15:46:44;25.30;74.20
9542;DHT22;4809;48.224;8.572;2023-07-31T15:49:10;25.30;73.60
9542;DHT22;4809;48.224;8.572;2023-07-31T15:51:36;25.30;74.00
9542;DHT22;4809;48.224;8.572;2023-07-31T15:54:02;25.20;73.20
9542;DHT22;4809;48.224;8.572;2023-07-31T15:56:28;25.00;72.00
9542;DHT22;4809;48.224;8.572;2023-07-31T15:58:53;24.70;72.50
9542;DHT22;4809;48.224;8.572;2023-07-31T16:01:23;24.40;73.70
9542;DHT22;4809;48.224;8.572;2023-07-31T16:03:48;24.20;73.90
9542;DHT22;4809;48.224;8.572;2023-07-31T16:06:14;24.00;75.30
9542;DHT22;4809;48.224;8.572;2023-07-31T16:08:40;23.90;76.40
9542;DHT22;4809;48.224;8.572;2023-07-31T16:11:10;24.00;75.80
9542;DHT22;4809;48.224;8.572;2023-07-31T16:13:36;23.90;76.80
9542;DHT22;4809;48.224;8.572;2023-07-31T16:16:01;23.90;77.50
9542;DHT22;4809;48.224;8.572;2023-07-31T16:18:27;23.90;78.40